createdAt,value
2023-01-02T00:00:27.088Z,102181.69
2023-01-02T00:03:30.285Z,102168.78
2023-01-02T00:06:39.686Z,102167.91
2023-01-02T00:09:41.725Z,102166.34
2023-01-02T00:12:43.861Z,102172.16
2023-01-02T00:15:47.022Z,102184.28
2023-01-02T00:18:49.218Z,102165.94
2023-01-02T00:21:51.638Z,102186.56
2023-01-02T00:24:54.639Z,102182.28
2023-01-02T00:27:57.631Z,102183.88
2023-01-02T00:31:09.788Z,102191.94
2023-01-02T00:34:11.791Z,102180.56
2023-01-02T00:37:13.843Z,102183.41
2023-01-02T00:40:16.899Z,102171.66
2023-01-02T00:43:19.912Z,102184.97
2023-01-02T00:46:22.372Z,102172.34
2023-01-02T00:49:26.243Z,102186.03
2023-01-02T00:52:28.944Z,102179.66
2023-01-02T00:55:31.608Z,102172.22
2023-01-02T00:58:33.674Z,102169.81
2023-01-02T01:01:36.043Z,102179.00
2023-01-02T01:04:38.321Z,102182.72
2023-01-02T01:08:05.415Z,102187.47
2023-01-02T01:11:09.079Z,102190.09
2023-01-02T01:14:11.261Z,102166.13
2023-01-02T01:17:13.479Z,102172.34
2023-01-02T01:20:15.632Z,102185.53
2023-01-02T01:23:17.683Z,102186.72
2023-01-02T01:26:20.732Z,102176.47
2023-01-02T01:29:22.974Z,102169.81
2023-01-02T01:32:25.102Z,102157.75
2023-01-02T01:35:29.391Z,102172.50
2023-01-02T01:38:32.893Z,102182.19
2023-01-02T01:41:36.175Z,102168.78
2023-01-02T01:44:49.801Z,102175.13
2023-01-02T01:47:55.507Z,102176.44
2023-01-02T01:50:58.586Z,102168.94
2023-01-02T01:54:16.179Z,102161.94
2023-01-02T01:57:27.322Z,102170.16
2023-01-02T02:00:31.482Z,102162.16
2023-01-02T02:03:37.194Z,102163.63
2023-01-02T02:06:41.006Z,102166.53
2023-01-02T02:09:59.784Z,102174.91
2023-01-02T02:13:03.979Z,102180.19
2023-01-02T02:16:17.896Z,102181.28
2023-01-02T02:19:40.191Z,102185.16
2023-01-02T02:23:06.890Z,102179.19
2023-01-02T02:26:40.635Z,102175.75
2023-01-02T02:29:42.696Z,102160.22
2023-01-02T02:33:07.203Z,102166.47
2023-01-02T02:36:22.053Z,102164.66
2023-01-02T02:39:36.015Z,102161.41
2023-01-02T02:42:57.025Z,102165.22
2023-01-02T02:46:17.648Z,102165.94
2023-01-02T02:49:38.195Z,102174.06
2023-01-02T02:52:57.236Z,102170.06
2023-01-02T02:56:03.817Z,102179.91
2023-01-02T02:59:06.199Z,102174.38
2023-01-02T03:02:08.801Z,102180.19
2023-01-02T03:05:16.614Z,102182.91
2023-01-02T03:08:33.256Z,102167.97
2023-01-02T03:11:47.496Z,102197.53
2023-01-02T03:15:06.526Z,102202.25
2023-01-02T03:18:10.399Z,102189.88
2023-01-02T03:21:45.079Z,102193.41
2023-01-02T03:24:51.111Z,102195.25
2023-01-02T03:28:01.447Z,102179.47
2023-01-02T03:31:05.965Z,102194.53
2023-01-02T03:34:18.039Z,102192.97
2023-01-02T03:37:33.553Z,102181.59
2023-01-02T03:40:44.323Z,102197.25
2023-01-02T03:43:56.377Z,102187.28
2023-01-02T03:47:37.825Z,102208.34
2023-01-02T03:50:50.349Z,102205.91
2023-01-02T03:53:54.030Z,102194.25
2023-01-02T03:57:01.540Z,102202.38
2023-01-02T04:00:10.771Z,102184.88
2023-01-02T04:03:25.587Z,102182.75
2023-01-02T04:06:34.951Z,102185.16
2023-01-02T04:09:40.123Z,102185.75
2023-01-02T04:12:47.471Z,102209.06
2023-01-02T04:15:52.168Z,102190.13
2023-01-02T04:19:01.121Z,102195.56
2023-01-02T04:22:10.079Z,102180.06
2023-01-02T04:25:14.362Z,102220.56
2023-01-02T04:28:25.392Z,102216.72
2023-01-02T04:31:43.761Z,102204.06
2023-01-02T04:34:46.530Z,102221.00
2023-01-02T04:37:48.985Z,102217.00
2023-01-02T04:40:51.812Z,102213.44
2023-01-02T04:43:57.318Z,102222.13
2023-01-02T04:46:59.516Z,102220.56
2023-01-02T04:50:01.533Z,102212.47
2023-01-02T04:53:04.105Z,102210.16
2023-01-02T04:56:06.681Z,102214.84
2023-01-02T04:59:10.684Z,102211.06
2023-01-02T05:02:12.859Z,102208.72
2023-01-02T05:05:15.115Z,102192.00
2023-01-02T05:08:18.503Z,102200.75
2023-01-02T05:11:21.691Z,102217.25
2023-01-02T05:14:23.761Z,102191.81
2023-01-02T05:17:25.949Z,102203.28
2023-01-02T05:20:29.578Z,102216.00
2023-01-02T05:23:50.603Z,102203.53
2023-01-02T05:26:54.459Z,102208.63
2023-01-02T05:29:57.664Z,102211.63
2023-01-02T05:32:59.708Z,102221.72
2023-01-02T05:36:04.165Z,102226.88
2023-01-02T05:39:12.275Z,102237.22
2023-01-02T05:42:14.423Z,102222.09
2023-01-02T05:45:16.544Z,102228.19
2023-01-02T05:48:18.692Z,102232.13
2023-01-02T05:51:20.748Z,102241.06
2023-01-02T05:54:23.028Z,102245.19
2023-01-02T05:57:25.165Z,102221.19
2023-01-02T06:00:27.132Z,102226.84
2023-01-02T06:03:29.219Z,102217.22
2023-01-02T06:06:36.003Z,102234.56
2023-01-02T06:09:37.978Z,102218.91
2023-01-02T06:12:39.987Z,102219.53
2023-01-02T06:15:42.011Z,102225.22
2023-01-02T06:18:44.997Z,102211.94
2023-01-02T06:21:47.091Z,102223.44
2023-01-02T06:24:49.130Z,102233.75
2023-01-02T06:27:51.068Z,102235.25
2023-01-02T06:30:53.038Z,102244.78
2023-01-02T06:34:00.107Z,102242.94
2023-01-02T06:37:09.227Z,102238.34
2023-01-02T06:40:12.493Z,102236.84
2023-01-02T06:43:15.116Z,102229.34
2023-01-02T06:46:20.106Z,102239.88
2023-01-02T06:49:22.062Z,102242.09
2023-01-02T06:52:24.125Z,102235.47
2023-01-02T06:55:26.372Z,102241.41
2023-01-02T06:58:33.739Z,102241.34
2023-01-02T07:01:35.856Z,102241.53
2023-01-02T07:04:38.214Z,102231.16
2023-01-02T07:07:40.577Z,102246.19
2023-01-02T07:10:43.778Z,102256.06
2023-01-02T07:13:50.946Z,102262.50
2023-01-02T07:16:53.117Z,102267.56
2023-01-02T07:20:01.667Z,102250.25
2023-01-02T07:23:04.257Z,102259.63
2023-01-02T07:26:07.693Z,102257.66
2023-01-02T07:29:09.973Z,102256.25
2023-01-02T07:32:12.066Z,102251.22
2023-01-02T07:35:15.825Z,102227.75
2023-01-02T07:38:17.858Z,102241.16
2023-01-02T07:41:23.636Z,102233.22
2023-01-02T07:44:25.715Z,102229.63
2023-01-02T07:47:27.747Z,102241.66
2023-01-02T07:50:30.035Z,102251.78
2023-01-02T07:53:32.618Z,102250.50
2023-01-02T07:56:34.655Z,102257.03
2023-01-02T07:59:37.142Z,102263.94
2023-01-02T08:02:39.357Z,102259.16
2023-01-02T08:05:41.552Z,102266.44
2023-01-02T08:08:44.190Z,102263.44
2023-01-02T08:11:46.300Z,102266.22
2023-01-02T08:14:48.436Z,102256.09
2023-01-02T08:17:50.533Z,102253.06
2023-01-02T08:20:52.617Z,102251.88
2023-01-02T08:23:56.134Z,102255.94
2023-01-02T08:26:58.213Z,102239.28
2023-01-02T08:30:00.317Z,102262.88
2023-01-02T08:33:02.584Z,102272.41
2023-01-02T08:36:05.961Z,102275.97
2023-01-02T08:39:08.038Z,102268.91
2023-01-02T08:42:10.152Z,102271.84
2023-01-02T08:45:12.228Z,102267.41
2023-01-02T08:48:20.675Z,102269.66
2023-01-02T08:51:28.628Z,102270.63
2023-01-02T08:54:31.725Z,102251.22
2023-01-02T08:57:36.608Z,102257.91
2023-01-02T09:00:38.762Z,102255.06
2023-01-02T09:03:41.032Z,102250.81
2023-01-02T09:06:44.036Z,102262.34
2023-01-02T09:09:46.443Z,102259.34
2023-01-02T09:12:48.607Z,102240.31
2023-01-02T09:15:50.733Z,102242.66
2023-01-02T09:18:55.549Z,102236.53
2023-01-02T09:21:57.786Z,102232.44
2023-01-02T09:24:59.980Z,102215.47
2023-01-02T09:28:02.148Z,102217.66
2023-01-02T09:31:11.832Z,102197.44
2023-01-02T09:34:15.281Z,102206.97
2023-01-02T09:37:18.085Z,102193.53
2023-01-02T09:40:20.548Z,102198.28
2023-01-02T09:43:33.321Z,102179.22
2023-01-02T09:46:51.308Z,102183.47
2023-01-02T09:49:56.412Z,102175.84
2023-01-02T09:53:02.079Z,102159.50
2023-01-02T09:56:07.237Z,102176.78
2023-01-02T09:59:36.879Z,102168.81
2023-01-02T10:02:43.179Z,102157.63
2023-01-02T10:06:07.928Z,102161.19
2023-01-02T10:09:17.451Z,102150.31
2023-01-02T10:12:35.115Z,102134.22
2023-01-02T10:15:39.893Z,102141.84
2023-01-02T10:18:45.528Z,102135.06
2023-01-02T10:21:51.231Z,102135.75
2023-01-02T10:24:55.974Z,102130.66
2023-01-02T10:28:03.767Z,102132.03
2023-01-02T10:31:12.391Z,102128.94
2023-01-02T10:34:20.359Z,102120.59
2023-01-02T10:37:22.470Z,102125.31
2023-01-02T10:40:25.554Z,102111.19
2023-01-02T10:43:29.535Z,102114.59
2023-01-02T10:46:36.551Z,102118.34
2023-01-02T10:49:40.532Z,102121.22
2023-01-02T10:53:07.065Z,102106.72
2023-01-02T10:56:20.738Z,102078.97
2023-01-02T10:59:27.771Z,102090.94
2023-01-02T11:02:37.393Z,102091.13
2023-01-02T11:05:55.314Z,102087.19
2023-01-02T11:09:15.556Z,102084.75
2023-01-02T11:12:20.272Z,102071.75
2023-01-02T11:15:33.436Z,102080.06
2023-01-02T11:18:37.487Z,102070.25
2023-01-02T11:21:41.869Z,102067.34
2023-01-02T11:25:06.261Z,102069.53
2023-01-02T11:28:17.866Z,102043.69
2023-01-02T11:31:22.977Z,102040.13
2023-01-02T11:34:37.575Z,102025.78
2023-01-02T11:37:51.948Z,102041.56
2023-01-02T11:40:57.687Z,102035.56
2023-01-02T11:44:01.475Z,102032.44
2023-01-02T11:47:07.752Z,102022.72
2023-01-02T11:50:26.775Z,102030.75
2023-01-02T11:53:37.168Z,102018.31
2023-01-02T11:56:43.184Z,102017.38
2023-01-02T11:59:50.519Z,101998.50
2023-01-02T12:02:54.332Z,102008.19
2023-01-02T12:06:17.372Z,101999.38
2023-01-02T12:09:58.123Z,101998.09
2023-01-02T12:13:33.914Z,102007.59
2023-01-02T12:16:48.603Z,102009.06
2023-01-02T12:20:05.209Z,101994.69
2023-01-02T12:23:30.996Z,101995.44
2023-01-02T12:26:46.421Z,101998.31
2023-01-02T12:29:48.951Z,102002.34
2023-01-02T12:33:14.021Z,101998.00
2023-01-02T12:36:42.576Z,101999.25
2023-01-02T12:40:04.470Z,102004.19
2023-01-02T12:43:25.013Z,102010.78
2023-01-02T12:46:47.320Z,102012.84
2023-01-02T12:50:08.235Z,102002.94
2023-01-02T12:53:32.631Z,102004.63
2023-01-02T12:56:51.436Z,101999.00
2023-01-02T13:00:11.861Z,102006.34
2023-01-02T13:03:29.696Z,102010.66
2023-01-02T13:06:46.047Z,102007.00
2023-01-02T13:09:51.232Z,101990.88
2023-01-02T13:12:56.394Z,102017.00
2023-01-02T13:16:11.303Z,102002.63
2023-01-02T13:19:48.471Z,101987.63
2023-01-02T13:23:12.380Z,102018.28
2023-01-02T13:26:16.672Z,102013.25
2023-01-02T13:29:20.703Z,101999.28
2023-01-02T13:32:30.178Z,101990.56
2023-01-02T13:35:38.036Z,101986.47
2023-01-02T13:38:41.895Z,101980.16
2023-01-02T13:42:14.235Z,101986.19
2023-01-02T13:45:18.819Z,101983.88
2023-01-02T13:48:40.925Z,101977.69
2023-01-02T13:51:42.992Z,101986.59
2023-01-02T13:55:10.899Z,101988.44
2023-01-02T13:58:17.789Z,101979.19
2023-01-02T14:01:25.930Z,101973.41
2023-01-02T14:04:35.707Z,101982.06
2023-01-02T14:07:43.435Z,101976.09
2023-01-02T14:10:46.067Z,101963.66
2023-01-02T14:13:52.313Z,101965.84
2023-01-02T14:17:23.579Z,101977.31
2023-01-02T14:20:30.307Z,101966.25
2023-01-02T14:23:42.316Z,101958.94
2023-01-02T14:27:17.578Z,101965.09
2023-01-02T14:30:52.860Z,101960.88
2023-01-02T14:33:56.217Z,101957.06
2023-01-02T14:37:00.562Z,101964.06
2023-01-02T14:40:20.575Z,101954.09
2023-01-02T14:43:32.637Z,101964.47
2023-01-02T14:46:35.372Z,101935.13
2023-01-02T14:49:38.036Z,101939.78
2023-01-02T14:52:44.335Z,101938.81
2023-01-02T14:55:48.530Z,101941.88
2023-01-02T14:58:52.801Z,101940.78
2023-01-02T15:02:01.516Z,101935.84
2023-01-02T15:05:10.027Z,101942.22
2023-01-02T15:08:15.250Z,101936.75
2023-01-02T15:11:42.541Z,101946.50
2023-01-02T15:14:45.049Z,101933.53
2023-01-02T15:17:49.408Z,101936.13
2023-01-02T15:20:54.368Z,101951.19
2023-01-02T15:23:59.352Z,101945.66
2023-01-02T15:27:32.293Z,101940.56
2023-01-02T15:30:40.342Z,101944.88
2023-01-02T15:33:42.439Z,101930.34
2023-01-02T15:36:45.243Z,101953.72
2023-01-02T15:39:50.386Z,101947.47
2023-01-02T15:43:14.300Z,101930.47
2023-01-02T15:46:18.214Z,101941.41
2023-01-02T15:49:22.758Z,101952.78
2023-01-02T15:52:30.160Z,101931.59
2023-01-02T15:55:38.252Z,101932.91
2023-01-02T15:58:49.687Z,101948.94
2023-01-02T16:01:56.955Z,101924.84
2023-01-02T16:05:15.570Z,101952.66
2023-01-02T16:08:24.011Z,101947.50
2023-01-02T16:11:26.718Z,101950.63
2023-01-02T16:14:36.579Z,101951.41
2023-01-02T16:17:40.213Z,101946.28
2023-01-02T16:20:42.339Z,101927.03
2023-01-02T16:23:52.157Z,101940.88
2023-01-02T16:26:54.415Z,101940.94
2023-01-02T16:29:57.080Z,101947.22
2023-01-02T16:33:03.712Z,101917.88
2023-01-02T16:36:10.538Z,101954.66
2023-01-02T16:39:47.609Z,101950.19
2023-01-02T16:43:03.248Z,101962.13
2023-01-02T16:46:11.581Z,101958.06
2023-01-02T16:49:20.841Z,101956.16
2023-01-02T16:52:23.051Z,101943.53
2023-01-02T16:55:25.151Z,101937.88
2023-01-02T16:58:30.935Z,101949.06
2023-01-02T17:01:34.053Z,101948.34
2023-01-02T17:04:37.748Z,101956.22
2023-01-02T17:07:39.821Z,101948.53
2023-01-02T17:10:42.617Z,101951.13
2023-01-02T17:13:46.842Z,101948.03
2023-01-02T17:16:49.923Z,101932.84
2023-01-02T17:19:51.919Z,101953.13
2023-01-02T17:22:54.269Z,101941.28
2023-01-02T17:25:56.452Z,101933.88
2023-01-02T17:29:00.751Z,101937.59
2023-01-02T17:32:05.581Z,101948.16
2023-01-02T17:35:09.147Z,101922.59
2023-01-02T17:38:11.568Z,101928.75
2023-01-02T17:41:15.785Z,101922.91
2023-01-02T17:44:19.387Z,101917.41
2023-01-02T17:47:58.393Z,101927.53
2023-01-02T17:50:44.393Z,101912.75
2023-01-02T17:53:48.005Z,101918.94
2023-01-02T17:56:51.625Z,101910.50
2023-01-02T17:59:54.223Z,101915.94
2023-01-02T18:02:56.369Z,101913.06
2023-01-02T18:06:06.155Z,101925.34
2023-01-02T18:09:10.185Z,101913.47
2023-01-02T18:12:13.068Z,101913.75
2023-01-02T18:15:16.690Z,101893.03
2023-01-02T18:18:19.695Z,101906.38
2023-01-02T18:21:24.354Z,101892.47
2023-01-02T18:24:31.767Z,101899.38
2023-01-02T18:27:35.132Z,101898.19
2023-01-02T18:30:37.354Z,101887.13
2023-01-02T18:33:39.459Z,101892.22
2023-01-02T18:36:42.028Z,101888.81
2023-01-02T18:39:44.136Z,101863.72
2023-01-02T18:42:55.213Z,101877.69
2023-01-02T18:46:09.653Z,101871.66
2023-01-02T18:49:27.104Z,101872.41
2023-01-02T18:52:33.674Z,101868.94
2023-01-02T18:55:40.289Z,101878.72
2023-01-02T18:59:02.633Z,101873.09
2023-01-02T19:02:27.437Z,101866.22
2023-01-02T19:05:36.638Z,101879.06
2023-01-02T19:08:39.882Z,101879.31
2023-01-02T19:12:02.239Z,101876.47
2023-01-02T19:15:43.453Z,101866.31
2023-01-02T19:18:53.003Z,101862.50
2023-01-02T19:21:56.312Z,101864.94
2023-01-02T19:25:34.326Z,101859.00
2023-01-02T19:28:37.340Z,101860.94
2023-01-02T19:32:03.447Z,101864.59
2023-01-02T19:35:08.351Z,101869.13
2023-01-02T19:38:30.243Z,101856.41
2023-01-02T19:41:51.994Z,101843.84
2023-01-02T19:44:59.315Z,101856.31
2023-01-02T19:48:02.880Z,101851.34
2023-01-02T19:51:06.512Z,101854.63
2023-01-02T19:54:08.533Z,101851.25
2023-01-02T19:57:12.925Z,101849.31
2023-01-02T20:00:17.197Z,101835.06
2023-01-02T20:03:21.816Z,101842.44
2023-01-02T20:06:24.185Z,101834.28
2023-01-02T20:09:27.217Z,101846.72
2023-01-02T20:12:40.577Z,101841.31
2023-01-02T20:15:42.667Z,101825.59
2023-01-02T20:18:44.713Z,101844.09
2023-01-02T20:21:46.741Z,101825.66
2023-01-02T20:24:49.261Z,101818.91
2023-01-02T20:27:54.130Z,101827.56
2023-01-02T20:30:56.380Z,101823.47
2023-01-02T20:34:00.455Z,101825.72
2023-01-02T20:37:02.802Z,101818.75
2023-01-02T20:40:10.857Z,101815.69
2023-01-02T20:43:13.042Z,101807.06
2023-01-02T20:46:15.857Z,101812.00
2023-01-02T20:49:19.442Z,101805.03
2023-01-02T20:52:23.030Z,101802.84
2023-01-02T20:55:25.222Z,101814.19
2023-01-02T20:58:28.729Z,101799.44
2023-01-02T21:01:31.032Z,101804.00
2023-01-02T21:04:36.831Z,101801.47
2023-01-02T21:07:39.224Z,101806.56
2023-01-02T21:10:42.873Z,101793.47
2023-01-02T21:13:45.317Z,101796.53
2023-01-02T21:16:47.576Z,101800.63
2023-01-02T21:19:49.697Z,101791.09
2023-01-02T21:22:51.770Z,101796.66
2023-01-02T21:25:55.249Z,101788.69
2023-01-02T21:28:57.524Z,101789.00
2023-01-02T21:31:59.540Z,101799.19
2023-01-02T21:35:01.956Z,101795.59
2023-01-02T21:38:05.463Z,101796.16
2023-01-02T21:41:28.496Z,101798.56
2023-01-02T21:44:33.307Z,101782.75
2023-01-02T21:47:37.890Z,101789.00
2023-01-02T21:50:40.229Z,101796.44
2023-01-02T21:53:42.329Z,101785.13
2023-01-02T21:56:53.320Z,101789.19
2023-01-02T21:59:56.019Z,101795.59
2023-01-02T22:03:01.135Z,101787.13
2023-01-02T22:06:03.389Z,101790.16
2023-01-02T22:09:05.446Z,101764.47
2023-01-02T22:12:08.046Z,101788.47
2023-01-02T22:15:12.394Z,101784.19
2023-01-02T22:18:14.551Z,101792.72
2023-01-02T22:21:18.380Z,101782.69
2023-01-02T22:24:23.729Z,101797.31
2023-01-02T22:27:25.891Z,101778.66
2023-01-02T22:30:34.457Z,101795.84
2023-01-02T22:33:37.939Z,101796.50
2023-01-02T22:36:40.268Z,101787.50
2023-01-02T22:39:42.746Z,101783.66
2023-01-02T22:43:03.238Z,101788.69
2023-01-02T22:46:11.628Z,101789.25
2023-01-02T22:49:22.887Z,101780.94
2023-01-02T22:52:26.005Z,101772.75
2023-01-02T22:55:28.321Z,101782.56
2023-01-02T22:58:30.440Z,101762.41
2023-01-02T23:01:45.296Z,101777.00
2023-01-02T23:04:48.422Z,101757.66
2023-01-02T23:07:50.713Z,101739.88
2023-01-02T23:10:54.620Z,101755.84
2023-01-02T23:13:57.300Z,101762.09
2023-01-02T23:17:17.761Z,101758.03
2023-01-02T23:20:19.893Z,101766.97
2023-01-02T23:23:21.979Z,101765.28
2023-01-02T23:26:30.192Z,101758.72
2023-01-02T23:29:32.791Z,101761.97
2023-01-02T23:32:35.291Z,101761.03
2023-01-02T23:35:37.359Z,101750.94
2023-01-02T23:38:39.323Z,101733.78
2023-01-02T23:41:43.060Z,101744.22
2023-01-02T23:44:44.996Z,101742.34
2023-01-02T23:47:47.143Z,101740.56
2023-01-02T23:51:02.879Z,101746.38
2023-01-02T23:54:05.699Z,101741.34
2023-01-02T23:57:07.791Z,101751.31
